Terminal Aerodrome Forecast
Issued by NWS Detroit/Pontiac, MI

Home | Current Version | Previous Version | Text Only | Print | Product List | Glossary On
Versions: 1 2 3 4 5 6 7 8 9 10 11 12 13 14 15 16 17
000
FTUS43 KDTX 222300
TAFFNT
TAF
KFNT 222325Z 2300/2324 05007KT P6SM SCT050 BKN100
     FM230700 05005KT 4SM BR FEW015 SCT100
     FM230900 05003KT 2SM BR SCT006
     FM231300 05005KT 5SM HZ SCT150
     FM231500 07007KT P6SM SCT040
     FM232200 09007KT P6SM SCT060=

USA.gov is the U.S. government's official web portal to all federal, state and local government web resources and services.